sensor_id;sensor_type;location;lat;lon;timestamp;P1;durP1;ratioP1;P2;durP2;ratioP2
74158;SDS011;62511;47.970;11.774;2024-01-27T00:01:44;0.70;;;0.63;;
74158;SDS011;62511;47.970;11.774;2024-01-27T00:04:10;0.73;;;0.60;;
74158;SDS011;62511;47.970;11.774;2024-01-27T00:06:37;1.45;;;0.45;;
74158;SDS011;62511;47.970;11.774;2024-01-27T00:09:03;1.13;;;0.57;;
74158;SDS011;62511;47.970;11.774;2024-01-27T00:11:31;0.77;;;0.60;;
74158;SDS011;62511;47.970;11.774;2024-01-27T00:13:57;4.95;;;0.82;;
74158;SDS011;62511;47.970;11.774;2024-01-27T00:16:24;2.10;;;0.68;;
74158;SDS011;62511;47.970;11.774;2024-01-27T00:18:51;3.03;;;0.50;;
74158;SDS011;62511;47.970;11.774;2024-01-27T00:21:17;0.98;;;0.50;;
74158;SDS011;62511;47.970;11.774;2024-01-27T00:23:44;0.75;;;0.40;;
74158;SDS011;62511;47.970;11.774;2024-01-27T00:26:10;3.67;;;1.17;;
74158;SDS011;62511;47.970;11.774;2024-01-27T00:28:36;0.50;;;0.50;;
74158;SDS011;62511;47.970;11.774;2024-01-27T00:31:03;0.65;;;0.63;;
74158;SDS011;62511;47.970;11.774;2024-01-27T00:33:29;0.68;;;0.47;;
74158;SDS011;62511;47.970;11.774;2024-01-27T00:35:55;0.65;;;0.65;;
74158;SDS011;62511;47.970;11.774;2024-01-27T00:38:22;1.23;;;0.50;;
74158;SDS011;62511;47.970;11.774;2024-01-27T00:40:48;0.93;;;0.55;;
74158;SDS011;62511;47.970;11.774;2024-01-27T00:43:15;1.30;;;0.50;;
74158;SDS011;62511;47.970;11.774;2024-01-27T00:45:42;0.95;;;0.40;;
74158;SDS011;62511;47.970;11.774;2024-01-27T00:48:09;2.67;;;0.55;;
74158;SDS011;62511;47.970;11.774;2024-01-27T00:50:35;2.53;;;0.93;;
74158;SDS011;62511;47.970;11.774;2024-01-27T00:53:01;2.00;;;0.57;;
74158;SDS011;62511;47.970;11.774;2024-01-27T00:55:28;2.00;;;0.60;;
74158;SDS011;62511;47.970;11.774;2024-01-27T00:57:54;3.58;;;0.73;;
74158;SDS011;62511;47.970;11.774;2024-01-27T01:00:20;1.42;;;0.55;;
74158;SDS011;62511;47.970;11.774;2024-01-27T01:02:46;4.25;;;0.93;;
74158;SDS011;62511;47.970;11.774;2024-01-27T01:05:13;1.77;;;0.57;;
74158;SDS011;62511;47.970;11.774;2024-01-27T01:07:39;0.80;;;0.57;;
74158;SDS011;62511;47.970;11.774;2024-01-27T01:10:07;2.47;;;0.52;;
74158;SDS011;62511;47.970;11.774;2024-01-27T01:12:33;0.85;;;0.77;;
74158;SDS011;62511;47.970;11.774;2024-01-27T01:14:59;1.05;;;0.70;;
74158;SDS011;62511;47.970;11.774;2024-01-27T01:17:26;2.72;;;0.73;;
74158;SDS011;62511;47.970;11.774;2024-01-27T01:19:53;0.95;;;0.70;;
74158;SDS011;62511;47.970;11.774;2024-01-27T01:22:19;1.83;;;0.65;;
74158;SDS011;62511;47.970;11.774;2024-01-27T01:24:45;1.88;;;0.80;;
74158;SDS011;62511;47.970;11.774;2024-01-27T01:27:11;2.72;;;0.98;;
74158;SDS011;62511;47.970;11.774;2024-01-27T01:29:38;0.82;;;0.47;;
74158;SDS011;62511;47.970;11.774;2024-01-27T01:32:04;1.90;;;0.90;;
74158;SDS011;62511;47.970;11.774;2024-01-27T01:34:30;1.60;;;0.60;;
74158;SDS011;62511;47.970;11.774;2024-01-27T01:36:56;1.42;;;0.73;;
74158;SDS011;62511;47.970;11.774;2024-01-27T01:39:23;1.63;;;0.77;;
74158;SDS011;62511;47.970;11.774;2024-01-27T01:41:49;4.07;;;0.82;;
74158;SDS011;62511;47.970;11.774;2024-01-27T01:44:15;1.73;;;0.77;;
74158;SDS011;62511;47.970;11.774;2024-01-27T01:46:41;1.98;;;0.70;;
74158;SDS011;62511;47.970;11.774;2024-01-27T01:49:08;1.35;;;0.80;;
74158;SDS011;62511;47.970;11.774;2024-01-27T01:51:34;2.35;;;0.77;;
74158;SDS011;62511;47.970;11.774;2024-01-27T01:54:00;2.90;;;0.65;;
74158;SDS011;62511;47.970;11.774;2024-01-27T01:56:27;1.52;;;0.57;;
74158;SDS011;62511;47.970;11.774;2024-01-27T01:58:53;1.00;;;0.90;;
74158;SDS011;62511;47.970;11.774;2024-01-27T02:01:20;0.88;;;0.50;;
74158;SDS011;62511;47.970;11.774;2024-01-27T02:03:52;1.25;;;0.90;;
74158;SDS011;62511;47.970;11.774;2024-01-27T02:06:19;0.95;;;0.55;;
74158;SDS011;62511;47.970;11.774;2024-01-27T02:08:45;1.35;;;0.50;;
74158;SDS011;62511;47.970;11.774;2024-01-27T02:11:12;2.08;;;0.90;;
74158;SDS011;62511;47.970;11.774;2024-01-27T02:13:39;2.92;;;0.55;;
74158;SDS011;62511;47.970;11.774;2024-01-27T02:16:05;0.95;;;0.40;;
74158;SDS011;62511;47.970;11.774;2024-01-27T02:18:32;1.70;;;0.52;;
74158;SDS011;62511;47.970;11.774;2024-01-27T02:20:59;0.80;;;0.80;;
74158;SDS011;62511;47.970;11.774;2024-01-27T02:23:27;0.98;;;0.70;;
74158;SDS011;62511;47.970;11.774;2024-01-27T02:25:53;1.00;;;0.60;;
74158;SDS011;62511;47.970;11.774;2024-01-27T02:28:19;3.78;;;0.70;;
74158;SDS011;62511;47.970;11.774;2024-01-27T02:30:45;2.47;;;0.70;;
74158;SDS011;62511;47.970;11.774;2024-01-27T02:33:13;4.13;;;0.75;;
74158;SDS011;62511;47.970;11.774;2024-01-27T02:35:39;0.98;;;0.30;;
74158;SDS011;62511;47.970;11.774;2024-01-27T02:38:05;2.22;;;0.52;;
74158;SDS011;62511;47.970;11.774;2024-01-27T02:40:32;1.58;;;0.57;;
74158;SDS011;62511;47.970;11.774;2024-01-27T02:42:58;1.35;;;0.80;;
74158;SDS011;62511;47.970;11.774;2024-01-27T02:45:24;1.10;;;0.60;;
74158;SDS011;62511;47.970;11.774;2024-01-27T02:47:51;3.22;;;0.50;;
74158;SDS011;62511;47.970;11.774;2024-01-27T02:50:17;1.80;;;0.70;;
74158;SDS011;62511;47.970;11.774;2024-01-27T02:52:43;2.22;;;0.80;;
74158;SDS011;62511;47.970;11.774;2024-01-27T02:55:10;2.17;;;0.57;;
74158;SDS011;62511;47.970;11.774;2024-01-27T02:57:36;1.10;;;0.98;;
74158;SDS011;62511;47.970;11.774;2024-01-27T03:00:04;2.40;;;0.63;;
74158;SDS011;62511;47.970;11.774;2024-01-27T03:02:30;1.05;;;0.85;;
74158;SDS011;62511;47.970;11.774;2024-01-27T03:04:56;1.50;;;0.55;;
74158;SDS011;62511;47.970;11.774;2024-01-27T03:07:23;2.97;;;0.57;;
74158;SDS011;62511;47.970;11.774;2024-01-27T03:09:49;0.77;;;0.60;;
74158;SDS011;62511;47.970;11.774;2024-01-27T03:12:15;5.03;;;0.93;;
74158;SDS011;62511;47.970;11.774;2024-01-27T03:14:41;1.02;;;0.60;;
74158;SDS011;62511;47.970;11.774;2024-01-27T03:17:10;1.02;;;0.50;;
74158;SDS011;62511;47.970;11.774;2024-01-27T03:19:36;1.48;;;0.70;;
74158;SDS011;62511;47.970;11.774;2024-01-27T03:22:02;2.00;;;0.93;;
74158;SDS011;62511;47.970;11.774;2024-01-27T03:24:29;2.25;;;0.80;;
74158;SDS011;62511;47.970;11.774;2024-01-27T03:26:55;1.17;;;0.50;;
74158;SDS011;62511;47.970;11.774;2024-01-27T03:29:21;0.98;;;0.60;;
74158;SDS011;62511;47.970;11.774;2024-01-27T03:31:47;1.50;;;0.70;;
74158;SDS011;62511;47.970;11.774;2024-01-27T03:34:14;2.05;;;0.70;;
74158;SDS011;62511;47.970;11.774;2024-01-27T03:36:42;1.73;;;1.02;;
74158;SDS011;62511;47.970;11.774;2024-01-27T03:39:09;1.25;;;0.70;;
74158;SDS011;62511;47.970;11.774;2024-01-27T03:41:35;0.75;;;0.57;;
74158;SDS011;62511;47.970;11.774;2024-01-27T03:44:01;0.98;;;0.85;;
74158;SDS011;62511;47.970;11.774;2024-01-27T03:46:28;2.95;;;0.57;;
74158;SDS011;62511;47.970;11.774;2024-01-27T03:48:54;1.95;;;0.88;;
74158;SDS011;62511;47.970;11.774;2024-01-27T03:51:21;0.68;;;0.50;;
74158;SDS011;62511;47.970;11.774;2024-01-27T03:53:48;2.25;;;0.55;;
74158;SDS011;62511;47.970;11.774;2024-01-27T03:56:16;0.70;;;0.60;;
74158;SDS011;62511;47.970;11.774;2024-01-27T03:58:42;0.88;;;0.70;;
74158;SDS011;62511;47.970;11.774;2024-01-27T04:01:08;0.40;;;0.40;;
74158;SDS011;62511;47.970;11.774;2024-01-27T04:03:34;3.03;;;0.70;;
74158;SDS011;62511;47.970;11.774;2024-01-27T04:06:01;3.85;;;0.82;;
74158;SDS011;62511;47.970;11.774;2024-01-27T04:08:28;0.40;;;0.40;;
74158;SDS011;62511;47.970;11.774;2024-01-27T04:10:55;0.52;;;0.50;;
74158;SDS011;62511;47.970;11.774;2024-01-27T04:13:21;1.33;;;0.95;;
74158;SDS011;62511;47.970;11.774;2024-01-27T04:15:47;0.85;;;0.85;;
74158;SDS011;62511;47.970;11.774;2024-01-27T04:18:13;1.58;;;0.65;;
74158;SDS011;62511;47.970;11.774;2024-01-27T04:20:39;1.10;;;0.60;;
74158;SDS011;62511;47.970;11.774;2024-01-27T04:23:05;1.25;;;0.68;;
74158;SDS011;62511;47.970;11.774;2024-01-27T04:25:31;1.17;;;1.08;;
74158;SDS011;62511;47.970;11.774;2024-01-27T04:27:58;1.85;;;0.52;;
74158;SDS011;62511;47.970;11.774;2024-01-27T04:30:24;6.53;;;0.85;;
74158;SDS011;62511;47.970;11.774;2024-01-27T04:32:51;1.15;;;0.40;;
74158;SDS011;62511;47.970;11.774;2024-01-27T04:35:17;4.93;;;0.95;;
74158;SDS011;62511;47.970;11.774;2024-01-27T04:37:44;1.05;;;0.40;;
74158;SDS011;62511;47.970;11.774;2024-01-27T04:40:10;2.75;;;0.73;;
74158;SDS011;62511;47.970;11.774;2024-01-27T04:42:38;3.17;;;1.00;;
74158;SDS011;62511;47.970;11.774;2024-01-27T04:45:07;2.30;;;0.70;;
74158;SDS011;62511;47.970;11.774;2024-01-27T04:47:33;2.35;;;1.00;;
74158;SDS011;62511;47.970;11.774;2024-01-27T04:50:00;1.75;;;0.77;;
74158;SDS011;62511;47.970;11.774;2024-01-27T04:52:26;1.60;;;1.25;;
74158;SDS011;62511;47.970;11.774;2024-01-27T04:54:52;1.05;;;0.80;;
74158;SDS011;62511;47.970;11.774;2024-01-27T04:57:18;4.90;;;0.65;;
74158;SDS011;62511;47.970;11.774;2024-01-27T04:59:44;1.38;;;1.02;;
74158;SDS011;62511;47.970;11.774;2024-01-27T05:02:12;1.98;;;0.57;;
74158;SDS011;62511;47.970;11.774;2024-01-27T05:04:38;2.72;;;0.70;;
74158;SDS011;62511;47.970;11.774;2024-01-27T05:07:04;0.77;;;0.63;;
74158;SDS011;62511;47.970;11.774;2024-01-27T05:09:30;0.85;;;0.80;;
74158;SDS011;62511;47.970;11.774;2024-01-27T05:11:59;4.25;;;1.02;;
74158;SDS011;62511;47.970;11.774;2024-01-27T05:14:26;3.40;;;0.65;;
74158;SDS011;62511;47.970;11.774;2024-01-27T05:16:52;1.02;;;0.82;;
74158;SDS011;62511;47.970;11.774;2024-01-27T05:19:18;0.75;;;0.70;;
74158;SDS011;62511;47.970;11.774;2024-01-27T05:21:44;0.55;;;0.55;;
74158;SDS011;62511;47.970;11.774;2024-01-27T05:24:11;0.80;;;0.60;;
74158;SDS011;62511;47.970;11.774;2024-01-27T05:26:37;1.23;;;0.70;;
74158;SDS011;62511;47.970;11.774;2024-01-27T05:29:03;0.50;;;0.50;;
74158;SDS011;62511;47.970;11.774;2024-01-27T05:31:30;0.68;;;0.65;;
74158;SDS011;62511;47.970;11.774;2024-01-27T05:33:56;0.88;;;0.60;;
74158;SDS011;62511;47.970;11.774;2024-01-27T05:36:22;0.70;;;0.57;;
74158;SDS011;62511;47.970;11.774;2024-01-27T05:38:50;1.48;;;0.35;;
74158;SDS011;62511;47.970;11.774;2024-01-27T05:41:16;0.75;;;0.50;;
74158;SDS011;62511;47.970;11.774;2024-01-27T05:43:42;1.52;;;1.42;;
74158;SDS011;62511;47.970;11.774;2024-01-27T05:46:09;1.25;;;0.70;;
74158;SDS011;62511;47.970;11.774;2024-01-27T05:48:35;2.97;;;0.90;;
74158;SDS011;62511;47.970;11.774;2024-01-27T05:51:03;1.40;;;0.88;;
74158;SDS011;62511;47.970;11.774;2024-01-27T05:53:29;4.20;;;0.90;;
74158;SDS011;62511;47.970;11.774;2024-01-27T05:55:56;1.02;;;0.77;;
74158;SDS011;62511;47.970;11.774;2024-01-27T05:58:22;1.00;;;0.65;;
74158;SDS011;62511;47.970;11.774;2024-01-27T06:00:48;4.72;;;0.60;;
74158;SDS011;62511;47.970;11.774;2024-01-27T06:08:10;6.35;;;0.93;;
74158;SDS011;62511;47.970;11.774;2024-01-27T06:10:36;0.60;;;0.60;;
74158;SDS011;62511;47.970;11.774;2024-01-27T06:13:03;0.88;;;0.68;;
74158;SDS011;62511;47.970;11.774;2024-01-27T06:15:29;1.60;;;0.90;;
74158;SDS011;62511;47.970;11.774;2024-01-27T06:17:55;1.33;;;0.85;;
74158;SDS011;62511;47.970;11.774;2024-01-27T06:20:22;6.00;;;0.70;;
74158;SDS011;62511;47.970;11.774;2024-01-27T06:22:48;2.80;;;0.80;;
74158;SDS011;62511;47.970;11.774;2024-01-27T06:25:14;4.95;;;0.80;;
74158;SDS011;62511;47.970;11.774;2024-01-27T06:27:42;2.00;;;1.20;;
74158;SDS011;62511;47.970;11.774;2024-01-27T06:30:11;1.25;;;0.80;;
74158;SDS011;62511;47.970;11.774;2024-01-27T06:32:37;3.85;;;0.70;;
74158;SDS011;62511;47.970;11.774;2024-01-27T06:35:05;0.65;;;0.52;;
74158;SDS011;62511;47.970;11.774;2024-01-27T06:37:31;1.50;;;0.85;;
74158;SDS011;62511;47.970;11.774;2024-01-27T06:39:57;1.55;;;0.80;;
74158;SDS011;62511;47.970;11.774;2024-01-27T06:42:23;3.15;;;1.00;;
74158;SDS011;62511;47.970;11.774;2024-01-27T06:44:50;2.20;;;1.05;;
74158;SDS011;62511;47.970;11.774;2024-01-27T06:49:43;0.52;;;0.40;;
74158;SDS011;62511;47.970;11.774;2024-01-27T06:52:12;1.08;;;0.93;;
74158;SDS011;62511;47.970;11.774;2024-01-27T06:54:38;1.88;;;1.15;;
74158;SDS011;62511;47.970;11.774;2024-01-27T06:57:17;7.03;;;3.38;;
74158;SDS011;62511;47.970;11.774;2024-01-27T06:59:46;11.15;;;4.15;;
74158;SDS011;62511;47.970;11.774;2024-01-27T07:02:26;8.60;;;3.28;;
74158;SDS011;62511;47.970;11.774;2024-01-27T07:04:55;4.60;;;1.70;;
74158;SDS011;62511;47.970;11.774;2024-01-27T07:07:28;6.72;;;1.75;;
74158;SDS011;62511;47.970;11.774;2024-01-27T07:09:54;2.20;;;1.20;;
74158;SDS011;62511;47.970;11.774;2024-01-27T07:12:21;3.00;;;1.50;;
74158;SDS011;62511;47.970;11.774;2024-01-27T07:14:47;5.80;;;1.50;;
74158;SDS011;62511;47.970;11.774;2024-01-27T07:17:13;2.75;;;0.63;;
74158;SDS011;62511;47.970;11.774;2024-01-27T07:19:39;1.15;;;0.82;;
74158;SDS011;62511;47.970;11.774;2024-01-27T07:22:05;0.90;;;0.70;;
74158;SDS011;62511;47.970;11.774;2024-01-27T07:24:33;5.85;;;1.00;;
74158;SDS011;62511;47.970;11.774;2024-01-27T07:27:00;0.77;;;0.65;;
74158;SDS011;62511;47.970;11.774;2024-01-27T07:29:26;1.63;;;0.70;;
74158;SDS011;62511;47.970;11.774;2024-01-27T07:31:52;3.00;;;1.10;;
74158;SDS011;62511;47.970;11.774;2024-01-27T07:34:18;1.45;;;0.70;;
74158;SDS011;62511;47.970;11.774;2024-01-27T07:36:45;0.82;;;0.82;;
74158;SDS011;62511;47.970;11.774;2024-01-27T07:39:13;1.80;;;1.05;;
74158;SDS011;62511;47.970;11.774;2024-01-27T07:41:39;1.27;;;1.08;;
74158;SDS011;62511;47.970;11.774;2024-01-27T07:44:12;0.85;;;0.80;;
74158;SDS011;62511;47.970;11.774;2024-01-27T07:46:39;6.88;;;1.42;;
74158;SDS011;62511;47.970;11.774;2024-01-27T07:49:08;3.55;;;1.10;;
74158;SDS011;62511;47.970;11.774;2024-01-27T07:51:36;2.58;;;1.25;;
74158;SDS011;62511;47.970;11.774;2024-01-27T07:54:03;1.60;;;1.00;;
74158;SDS011;62511;47.970;11.774;2024-01-27T07:56:29;3.47;;;1.80;;
74158;SDS011;62511;47.970;11.774;2024-01-27T07:58:56;7.53;;;1.77;;
74158;SDS011;62511;47.970;11.774;2024-01-27T08:01:22;4.15;;;1.70;;
74158;SDS011;62511;47.970;11.774;2024-01-27T08:03:49;3.20;;;1.42;;
74158;SDS011;62511;47.970;11.774;2024-01-27T08:06:19;3.85;;;1.33;;
74158;SDS011;62511;47.970;11.774;2024-01-27T08:08:48;3.78;;;1.50;;
74158;SDS011;62511;47.970;11.774;2024-01-27T08:11:14;2.38;;;1.50;;
74158;SDS011;62511;47.970;11.774;2024-01-27T08:13:43;3.28;;;0.88;;
74158;SDS011;62511;47.970;11.774;2024-01-27T08:16:10;4.90;;;1.70;;
74158;SDS011;62511;47.970;11.774;2024-01-27T08:18:40;2.25;;;1.02;;
74158;SDS011;62511;47.970;11.774;2024-01-27T08:21:10;2.83;;;1.25;;
74158;SDS011;62511;47.970;11.774;2024-01-27T08:23:40;5.45;;;1.33;;
74158;SDS011;62511;47.970;11.774;2024-01-27T08:26:07;2.13;;;1.15;;
74158;SDS011;62511;47.970;11.774;2024-01-27T08:28:33;2.53;;;1.27;;
74158;SDS011;62511;47.970;11.774;2024-01-27T08:30:59;2.35;;;1.20;;
74158;SDS011;62511;47.970;11.774;2024-01-27T08:33:26;5.50;;;1.45;;
74158;SDS011;62511;47.970;11.774;2024-01-27T08:35:53;3.00;;;0.98;;
74158;SDS011;62511;47.970;11.774;2024-01-27T08:38:19;3.08;;;1.13;;
74158;SDS011;62511;47.970;11.774;2024-01-27T08:40:46;3.50;;;0.73;;
74158;SDS011;62511;47.970;11.774;2024-01-27T08:43:12;2.10;;;1.00;;
74158;SDS011;62511;47.970;11.774;2024-01-27T08:45:38;4.82;;;1.73;;
74158;SDS011;62511;47.970;11.774;2024-01-27T08:48:05;4.75;;;2.10;;
74158;SDS011;62511;47.970;11.774;2024-01-27T08:50:31;3.65;;;1.30;;
74158;SDS011;62511;47.970;11.774;2024-01-27T08:52:58;7.72;;;1.38;;
74158;SDS011;62511;47.970;11.774;2024-01-27T08:55:24;2.65;;;0.95;;
74158;SDS011;62511;47.970;11.774;2024-01-27T08:57:51;3.60;;;0.95;;
74158;SDS011;62511;47.970;11.774;2024-01-27T09:00:17;6.78;;;1.70;;
74158;SDS011;62511;47.970;11.774;2024-01-27T09:02:43;2.20;;;0.95;;
74158;SDS011;62511;47.970;11.774;2024-01-27T09:05:10;2.35;;;1.63;;
74158;SDS011;62511;47.970;11.774;2024-01-27T09:07:36;0.90;;;0.65;;
74158;SDS011;62511;47.970;11.774;2024-01-27T09:10:02;3.28;;;1.52;;
74158;SDS011;62511;47.970;11.774;2024-01-27T09:12:29;5.22;;;2.45;;
74158;SDS011;62511;47.970;11.774;2024-01-27T09:14:55;7.50;;;1.95;;
74158;SDS011;62511;47.970;11.774;2024-01-27T09:17:21;4.47;;;1.20;;
74158;SDS011;62511;47.970;11.774;2024-01-27T09:19:48;1.83;;;1.08;;
74158;SDS011;62511;47.970;11.774;2024-01-27T09:22:14;5.40;;;1.38;;
74158;SDS011;62511;47.970;11.774;2024-01-27T09:24:40;2.97;;;1.20;;
74158;SDS011;62511;47.970;11.774;2024-01-27T09:27:07;4.57;;;1.50;;
74158;SDS011;62511;47.970;11.774;2024-01-27T09:29:33;4.30;;;0.68;;
74158;SDS011;62511;47.970;11.774;2024-01-27T09:31:59;4.65;;;1.15;;
74158;SDS011;62511;47.970;11.774;2024-01-27T09:34:25;3.65;;;1.23;;
74158;SDS011;62511;47.970;11.774;2024-01-27T09:36:53;7.85;;;1.52;;
74158;SDS011;62511;47.970;11.774;2024-01-27T09:39:19;2.22;;;1.13;;
74158;SDS011;62511;47.970;11.774;2024-01-27T09:41:45;2.03;;;1.42;;
74158;SDS011;62511;47.970;11.774;2024-01-27T09:44:14;9.00;;;1.17;;
74158;SDS011;62511;47.970;11.774;2024-01-27T09:46:44;2.17;;;0.98;;
74158;SDS011;62511;47.970;11.774;2024-01-27T09:49:13;6.13;;;1.52;;
74158;SDS011;62511;47.970;11.774;2024-01-27T09:51:42;4.65;;;1.50;;
74158;SDS011;62511;47.970;11.774;2024-01-27T09:54:09;2.33;;;1.05;;
74158;SDS011;62511;47.970;11.774;2024-01-27T09:56:35;2.47;;;1.33;;
74158;SDS011;62511;47.970;11.774;2024-01-27T09:59:02;1.52;;;1.17;;
74158;SDS011;62511;47.970;11.774;2024-01-27T10:01:29;3.95;;;1.30;;
74158;SDS011;62511;47.970;11.774;2024-01-27T10:03:56;2.20;;;0.90;;
74158;SDS011;62511;47.970;11.774;2024-01-27T10:06:23;3.60;;;1.20;;
74158;SDS011;62511;47.970;11.774;2024-01-27T10:11:16;7.38;;;1.48;;
74158;SDS011;62511;47.970;11.774;2024-01-27T10:13:43;3.00;;;0.93;;
74158;SDS011;62511;47.970;11.774;2024-01-27T10:16:09;1.25;;;0.90;;
74158;SDS011;62511;47.970;11.774;2024-01-27T10:18:37;4.38;;;1.50;;
74158;SDS011;62511;47.970;11.774;2024-01-27T10:21:15;3.40;;;1.02;;
74158;SDS011;62511;47.970;11.774;2024-01-27T10:23:42;3.90;;;1.42;;
74158;SDS011;62511;47.970;11.774;2024-01-27T10:26:09;1.60;;;0.95;;
74158;SDS011;62511;47.970;11.774;2024-01-27T10:28:35;5.18;;;1.17;;
74158;SDS011;62511;47.970;11.774;2024-01-27T10:31:09;6.40;;;1.50;;
74158;SDS011;62511;47.970;11.774;2024-01-27T10:33:35;3.50;;;0.93;;
74158;SDS011;62511;47.970;11.774;2024-01-27T10:36:03;5.78;;;1.23;;
74158;SDS011;62511;47.970;11.774;2024-01-27T10:38:38;3.90;;;1.35;;
74158;SDS011;62511;47.970;11.774;2024-01-27T10:41:07;3.33;;;1.05;;
74158;SDS011;62511;47.970;11.774;2024-01-27T10:43:37;5.47;;;1.23;;
74158;SDS011;62511;47.970;11.774;2024-01-27T10:46:07;0.93;;;0.75;;
74158;SDS011;62511;47.970;11.774;2024-01-27T10:48:34;4.72;;;1.65;;
74158;SDS011;62511;47.970;11.774;2024-01-27T10:51:08;2.70;;;0.88;;
74158;SDS011;62511;47.970;11.774;2024-01-27T10:53:35;5.35;;;1.23;;
74158;SDS011;62511;47.970;11.774;2024-01-27T10:56:04;3.60;;;1.35;;
74158;SDS011;62511;47.970;11.774;2024-01-27T10:58:34;5.97;;;1.67;;
74158;SDS011;62511;47.970;11.774;2024-01-27T11:01:11;1.73;;;1.10;;
74158;SDS011;62511;47.970;11.774;2024-01-27T11:03:40;1.88;;;1.15;;
74158;SDS011;62511;47.970;11.774;2024-01-27T11:06:07;3.55;;;1.52;;
74158;SDS011;62511;47.970;11.774;2024-01-27T11:08:34;6.07;;;1.10;;
74158;SDS011;62511;47.970;11.774;2024-01-27T11:11:03;4.78;;;1.35;;
74158;SDS011;62511;47.970;11.774;2024-01-27T11:13:32;4.07;;;1.10;;
74158;SDS011;62511;47.970;11.774;2024-01-27T11:15:59;2.08;;;0.85;;
74158;SDS011;62511;47.970;11.774;2024-01-27T11:18:27;5.93;;;1.30;;
74158;SDS011;62511;47.970;11.774;2024-01-27T11:20:55;4.97;;;1.13;;
74158;SDS011;62511;47.970;11.774;2024-01-27T11:23:30;5.30;;;1.60;;
74158;SDS011;62511;47.970;11.774;2024-01-27T11:26:05;3.45;;;1.10;;
74158;SDS011;62511;47.970;11.774;2024-01-27T11:28:32;4.47;;;1.40;;
74158;SDS011;62511;47.970;11.774;2024-01-27T11:31:02;5.88;;;1.63;;
74158;SDS011;62511;47.970;11.774;2024-01-27T11:33:29;4.82;;;1.17;;
74158;SDS011;62511;47.970;11.774;2024-01-27T11:36:05;6.57;;;1.42;;
74158;SDS011;62511;47.970;11.774;2024-01-27T11:38:31;3.15;;;1.10;;
74158;SDS011;62511;47.970;11.774;2024-01-27T11:40:59;2.95;;;1.17;;
74158;SDS011;62511;47.970;11.774;2024-01-27T11:43:27;1.08;;;0.70;;
74158;SDS011;62511;47.970;11.774;2024-01-27T11:48:19;4.13;;;1.42;;
74158;SDS011;62511;47.970;11.774;2024-01-27T11:50:46;6.00;;;1.13;;
74158;SDS011;62511;47.970;11.774;2024-01-27T11:53:12;4.72;;;1.05;;
74158;SDS011;62511;47.970;11.774;2024-01-27T11:55:39;2.55;;;0.82;;
74158;SDS011;62511;47.970;11.774;2024-01-27T11:58:05;1.63;;;0.77;;
74158;SDS011;62511;47.970;11.774;2024-01-27T12:00:32;4.15;;;1.15;;
74158;SDS011;62511;47.970;11.774;2024-01-27T12:02:58;4.78;;;1.13;;
74158;SDS011;62511;47.970;11.774;2024-01-27T12:05:25;3.17;;;1.08;;
74158;SDS011;62511;47.970;11.774;2024-01-27T12:07:51;1.27;;;0.90;;
74158;SDS011;62511;47.970;11.774;2024-01-27T12:10:17;4.47;;;1.10;;
74158;SDS011;62511;47.970;11.774;2024-01-27T12:12:44;4.15;;;1.23;;
74158;SDS011;62511;47.970;11.774;2024-01-27T12:15:10;5.43;;;1.33;;
74158;SDS011;62511;47.970;11.774;2024-01-27T12:17:37;1.48;;;0.98;;
74158;SDS011;62511;47.970;11.774;2024-01-27T12:20:04;4.35;;;1.00;;
74158;SDS011;62511;47.970;11.774;2024-01-27T12:22:40;2.85;;;0.98;;
74158;SDS011;62511;47.970;11.774;2024-01-27T12:25:10;2.28;;;0.93;;
74158;SDS011;62511;47.970;11.774;2024-01-27T12:27:38;7.43;;;1.10;;
74158;SDS011;62511;47.970;11.774;2024-01-27T12:30:05;1.33;;;0.82;;
74158;SDS011;62511;47.970;11.774;2024-01-27T12:32:31;3.42;;;0.82;;
74158;SDS011;62511;47.970;11.774;2024-01-27T12:34:58;3.67;;;1.20;;
74158;SDS011;62511;47.970;11.774;2024-01-27T12:37:25;1.65;;;1.10;;
74158;SDS011;62511;47.970;11.774;2024-01-27T12:39:51;0.47;;;0.47;;
74158;SDS011;62511;47.970;11.774;2024-01-27T12:42:17;2.50;;;1.00;;
74158;SDS011;62511;47.970;11.774;2024-01-27T12:44:43;2.13;;;1.15;;
74158;SDS011;62511;47.970;11.774;2024-01-27T12:47:10;4.65;;;1.08;;
74158;SDS011;62511;47.970;11.774;2024-01-27T12:49:36;4.22;;;0.80;;
74158;SDS011;62511;47.970;11.774;2024-01-27T12:52:03;3.50;;;1.00;;
74158;SDS011;62511;47.970;11.774;2024-01-27T12:54:31;4.40;;;1.10;;
74158;SDS011;62511;47.970;11.774;2024-01-27T12:56:57;3.47;;;0.75;;
74158;SDS011;62511;47.970;11.774;2024-01-27T12:59:24;2.17;;;0.82;;
74158;SDS011;62511;47.970;11.774;2024-01-27T13:01:50;1.60;;;0.88;;
74158;SDS011;62511;47.970;11.774;2024-01-27T13:04:18;5.57;;;1.17;;
74158;SDS011;62511;47.970;11.774;2024-01-27T13:06:47;1.02;;;0.60;;
74158;SDS011;62511;47.970;11.774;2024-01-27T13:09:13;1.13;;;0.80;;
74158;SDS011;62511;47.970;11.774;2024-01-27T13:11:39;8.10;;;0.90;;
74158;SDS011;62511;47.970;11.774;2024-01-27T13:14:06;3.15;;;1.08;;
74158;SDS011;62511;47.970;11.774;2024-01-27T13:16:34;1.10;;;0.60;;
74158;SDS011;62511;47.970;11.774;2024-01-27T13:19:01;1.88;;;0.60;;
74158;SDS011;62511;47.970;11.774;2024-01-27T13:21:27;3.10;;;0.70;;
74158;SDS011;62511;47.970;11.774;2024-01-27T13:23:53;1.73;;;0.70;;
74158;SDS011;62511;47.970;11.774;2024-01-27T13:26:20;1.88;;;0.82;;
74158;SDS011;62511;47.970;11.774;2024-01-27T13:28:46;0.85;;;0.55;;
74158;SDS011;62511;47.970;11.774;2024-01-27T13:31:16;4.07;;;0.60;;
74158;SDS011;62511;47.970;11.774;2024-01-27T13:33:42;1.38;;;0.63;;
74158;SDS011;62511;47.970;11.774;2024-01-27T13:36:12;2.85;;;0.90;;
74158;SDS011;62511;47.970;11.774;2024-01-27T13:38:39;2.85;;;0.60;;
74158;SDS011;62511;47.970;11.774;2024-01-27T13:41:06;1.42;;;0.77;;
74158;SDS011;62511;47.970;11.774;2024-01-27T13:43:32;1.50;;;0.80;;
74158;SDS011;62511;47.970;11.774;2024-01-27T13:45:59;5.70;;;0.70;;
74158;SDS011;62511;47.970;11.774;2024-01-27T13:48:25;1.90;;;1.08;;
74158;SDS011;62511;47.970;11.774;2024-01-27T13:50:52;2.05;;;0.70;;
74158;SDS011;62511;47.970;11.774;2024-01-27T13:53:18;4.38;;;1.23;;
74158;SDS011;62511;47.970;11.774;2024-01-27T13:55:45;1.88;;;1.08;;
74158;SDS011;62511;47.970;11.774;2024-01-27T13:58:11;4.32;;;0.90;;
74158;SDS011;62511;47.970;11.774;2024-01-27T14:00:38;0.95;;;0.55;;
74158;SDS011;62511;47.970;11.774;2024-01-27T14:03:05;3.13;;;0.90;;
74158;SDS011;62511;47.970;11.774;2024-01-27T14:05:31;1.98;;;0.75;;
74158;SDS011;62511;47.970;11.774;2024-01-27T14:07:59;1.55;;;1.10;;
74158;SDS011;62511;47.970;11.774;2024-01-27T14:10:26;1.70;;;1.00;;
74158;SDS011;62511;47.970;11.774;2024-01-27T14:12:52;1.05;;;0.63;;
74158;SDS011;62511;47.970;11.774;2024-01-27T14:15:18;1.45;;;0.82;;
74158;SDS011;62511;47.970;11.774;2024-01-27T14:20:12;4.63;;;1.30;;
74158;SDS011;62511;47.970;11.774;2024-01-27T14:22:39;1.92;;;1.13;;
74158;SDS011;62511;47.970;11.774;2024-01-27T14:25:05;4.63;;;1.00;;
74158;SDS011;62511;47.970;11.774;2024-01-27T14:27:33;2.22;;;0.77;;
74158;SDS011;62511;47.970;11.774;2024-01-27T14:30:01;6.13;;;1.05;;
74158;SDS011;62511;47.970;11.774;2024-01-27T14:32:27;3.40;;;0.90;;
74158;SDS011;62511;47.970;11.774;2024-01-27T14:34:54;1.83;;;0.80;;
74158;SDS011;62511;47.970;11.774;2024-01-27T14:37:20;3.72;;;1.00;;
74158;SDS011;62511;47.970;11.774;2024-01-27T14:39:46;3.10;;;1.10;;
74158;SDS011;62511;47.970;11.774;2024-01-27T14:42:13;3.72;;;0.93;;
74158;SDS011;62511;47.970;11.774;2024-01-27T14:44:42;3.50;;;1.08;;
74158;SDS011;62511;47.970;11.774;2024-01-27T14:47:10;2.35;;;0.93;;